»·PEaware :: N145JS KPHX-KLAS

N145JS :: KPHX-KLAS

FLIGHT INFORMATION

Flight Status: Arrived
Operator: Privately registered:
United States
More flights under this callsign
Pilot: Dylan D. (42196)
Aircraft: BEECH AIRCRAFT PREMIER
(PRM1)
More flights by this aircraft type
Origin: KPHX Phoenix Sky Harbor Intl
United States
Destination: KLAS Harry Reid Intl
United States
More flights between these airports :: More routes between these airports
Route: ZEPER2 RRSTA ELLDA RKSTR3
File this flight plan on PilotEdge
Remarks:
Altitude:
(Current/Filed)
32,000ft
Speed:
(Current/Filed)
300kts
Departed: 15-Nov-22 03:50 PM
Arrived: 15-Nov-22 04:41 PM
Distance/Time
Traveled:
223nm/0:51
Distance/Time
To Go:
Arrived

Flight Plot

Page will automatically refresh every two minutes.

Flight plan parsing failed; only flown route is shown


Map Options




Map Legend


Flown Route
Filed Route
Departure Airport
Arrival Airport
Navaid (VOR, NDB)
Fix

Horizontal Profiles

Position Reports

Time Latitude Longitude Heading Altitude Ground
Speed
15-Nov-22 15:36 33.426597 -112.016558 90 1116ft 0kts
15-Nov-22 15:37 33.426597 -112.016558 90 1116ft 0kts
15-Nov-22 15:38 33.426597 -112.016558 90 1116ft 0kts
15-Nov-22 15:39 33.426597 -112.016558 90 1116ft 0kts
15-Nov-22 15:40 33.426597 -112.016558 90 1116ft 0kts
15-Nov-22 15:41 33.426597 -112.016558 90 1116ft 0kts
15-Nov-22 15:42 33.426597 -112.016558 90 1116ft 0kts
15-Nov-22 15:43 33.426597 -112.016558 90 1116ft 0kts
15-Nov-22 15:44 33.426811 -112.016142 28 1116ft 7kts
15-Nov-22 15:45 33.427743 -112.018237 268 1116ft 14kts
15-Nov-22 15:46 33.427734 -112.025221 270 1115ft 17kts
15-Nov-22 15:47 33.427794 -112.026637 299 1112ft 0kts
15-Nov-22 15:48 33.428137 -112.026907 347 1112ft 10kts
15-Nov-22 15:49 33.429079 -111.999144 86 1406ft 199kts
15-Nov-22 15:50 33.434295 -111.913997 85 3009ft 305kts
15-Nov-22 15:51 33.481279 -111.843762 28 7587ft 251kts
15-Nov-22 15:52 33.565589 -111.837023 359 8011ft 334kts
15-Nov-22 15:53 33.644317 -111.836784 356 8142ft 273kts
15-Nov-22 15:54 33.718137 -111.848247 342 10971ft 275kts
15-Nov-22 15:55 33.771441 -111.912261 304 14086ft 286kts
15-Nov-22 15:56 33.819537 -111.991177 303 16819ft 301kts
15-Nov-22 15:57 33.869907 -112.073948 302 19322ft 313kts
15-Nov-22 15:58 33.924904 -112.164580 301 20661ft 351kts
15-Nov-22 15:59 33.982980 -112.260513 301 22191ft 369kts
15-Nov-22 16:00 34.050503 -112.356333 313 23740ft 384kts
15-Nov-22 16:01 34.132711 -112.439880 314 25143ft 391kts
15-Nov-22 16:02 34.218394 -112.526267 314 25904ft 408kts
15-Nov-22 16:03 34.305463 -112.614198 314 26967ft 411kts
15-Nov-22 16:04 34.393350 -112.703242 313 27973ft 413kts
15-Nov-22 16:05 34.481502 -112.792743 312 29173ft 408kts
15-Nov-22 16:06 34.567436 -112.880403 312 30168ft 409kts
15-Nov-22 16:07 34.654654 -112.969512 311 30922ft 414kts
15-Nov-22 16:08 34.743229 -113.060250 312 31587ft 420kts
15-Nov-22 16:09 34.823789 -113.159386 305 32224ft 415kts
15-Nov-22 16:10 34.904669 -113.262563 306 32254ft 428kts
15-Nov-22 16:11 34.988386 -113.368212 316 32244ft 442kts
15-Nov-22 16:12 35.082123 -113.464524 317 30978ft 439kts
15-Nov-22 16:13 35.174757 -113.557812 317 29059ft 429kts
15-Nov-22 16:14 35.265773 -113.649900 318 26755ft 428kts
15-Nov-22 16:15 35.352208 -113.737546 318 23763ft 376kts
15-Nov-22 16:16 35.427616 -113.814282 318 20939ft 339kts
15-Nov-22 16:17 35.498822 -113.886909 319 18344ft 324kts
15-Nov-22 16:18 35.564873 -113.954365 319 17945ft 312kts
15-Nov-22 16:19 35.635032 -114.026221 319 17937ft 337kts
15-Nov-22 16:20 35.706971 -114.100084 319 17482ft 329kts
15-Nov-22 16:21 35.768658 -114.178424 300 16986ft 316kts
15-Nov-22 16:22 35.811273 -114.272477 297 16492ft 315kts
15-Nov-22 16:23 35.833321 -114.374364 263 15725ft 320kts
15-Nov-22 16:24 35.822640 -114.481919 261 14230ft 312kts
15-Nov-22 16:25 35.811456 -114.585201 261 13992ft 302kts
15-Nov-22 16:26 35.800195 -114.688184 260 13991ft 305kts
15-Nov-22 16:27 35.788880 -114.790792 260 13599ft 299kts
15-Nov-22 16:28 35.778698 -114.891686 275 12978ft 292kts
15-Nov-22 16:29 35.804592 -114.987094 277 12062ft 292kts
15-Nov-22 16:30 35.784101 -115.073695 225 12719ft 274kts
15-Nov-22 16:31 35.771270 -115.157202 315 10307ft 301kts
15-Nov-22 16:32 35.830653 -115.221567 319 7334ft 227kts
15-Nov-22 16:33 35.853177 -115.280095 292 7316ft 194kts
15-Nov-22 16:34 35.887945 -115.317716 34 6433ft 186kts
15-Nov-22 16:35 35.912737 -115.270816 48 5300ft 146kts
15-Nov-22 16:36 35.947260 -115.239488 29 5037ft 165kts
15-Nov-22 16:37 35.988508 -115.218706 25 4128ft 160kts
15-Nov-22 16:38 36.027800 -115.198124 29 3378ft 157kts
15-Nov-22 16:39 36.064973 -115.176175 24 2587ft 145kts
15-Nov-22 16:40 36.089114 -115.163004 328 2131ft 12kts
15-Nov-22 16:41 36.089268 -115.163275 292 2131ft 0kts
15-Nov-22 16:42 36.091007 -115.164811 281 2131ft 0kts

Navigation Log

Ident Type
Flight plan parsing failed, navigation log unavailable